Airfield :
LOGIN :

Register | Disclaimer

   EN    FR    IT 

 










Legend :    VFR   Marginal VFR   IFR   Intensive IFR   Very Intensive IFR
Visi :
Ceiling :
>= 8 km
>= 3000ft
5 to 8 km
1000 to 3000 ft
1500m to 5 km
500 to 1000 ft
800 to 1500m
200 to 500 ft
< 800m
< 200 ft
Symbols :   Thunderstorms  Fog  Heavy snow  Heavy precipitations  Wind > 20 kt
SIGMETs :     Misc.  Thunderstorms  Icing  Turbulence  Mountain Waves  Volcanic Ashes






- Airport Elevation : 614 ft
- IATA code : CRL


EBCI - Charleroi

CURRENT METAR :
  • 022020Z AUTO 34005KT CAVOK 20/07 Q1014

EXPIRED METARs :
  • 021950Z AUTO 35005KT 310V020 CAVOK 20/07 Q1014
  • 021920Z AUTO 35007KT 310V010 CAVOK 21/07 Q1014
  • 021850Z AUTO 35008KT 310V010 CAVOK 22/07 Q1014
  • 021820Z AUTO 34009KT 310V020 CAVOK 23/08 Q1014
  • 021750Z AUTO 34009KT 290V010 CAVOK 24/08 Q1014

TAF TAF EBCI
Valid from the 02 at 18:00 until the 04 at 00:00 UTC


021705Z 0218/0324 33007KT CAVOK



MET'MAP, your aeronautical weather chart ! - Copyright ORBIFLY December 2007 - Disclaimer

ORBIFLY MET'MAP TEAM :

Programming & Development : Alexandra Zaïnal
Concept & original design : Baudouin d'Aumeries
Assistance for programming : Marc-Olivier Méhu
Technical & hardware support : Manuel Goepfert

Contact : metmap@orbifly.com




SOURCES & CREDITS :

   NOAA